createdAt,value
2018-12-20T00:00:21.295Z,320.35
2018-12-20T00:00:56.296Z,319.62
2018-12-20T00:01:31.165Z,313.62
2018-12-20T00:02:06.105Z,315.02
2018-12-20T00:02:41.115Z,320.35
2018-12-20T00:03:16.090Z,315.92
2018-12-20T00:03:51.306Z,309.95
2018-12-20T00:04:26.279Z,339.20
2018-12-20T00:05:01.126Z,314.48
2018-12-20T00:05:35.954Z,335.35
2018-12-20T00:06:10.927Z,302.75
2018-12-20T00:06:45.714Z,314.88
2018-12-20T00:07:20.679Z,330.23
2018-12-20T00:07:56.289Z,319.80
2018-12-20T00:08:31.183Z,328.73
2018-12-20T00:09:08.335Z,329.55
2018-12-20T00:09:43.378Z,316.82
2018-12-20T00:10:18.289Z,308.60
2018-12-20T00:10:53.516Z,316.25
2018-12-20T00:11:28.407Z,319.52
2018-12-20T00:12:03.149Z,296.70
2018-12-20T00:12:38.289Z,315.95
2018-12-20T00:13:13.093Z,309.90
2018-12-20T00:13:48.176Z,327.07
2018-12-20T00:14:29.714Z,309.85
2018-12-20T00:14:59.948Z,309.43
2018-12-20T00:15:34.894Z,291.47
2018-12-20T00:16:09.800Z,287.08
2018-12-20T00:16:44.494Z,291.25
2018-12-20T00:17:24.154Z,283.62
2018-12-20T00:17:59.136Z,299.45
2018-12-20T00:18:34.046Z,294.27
2018-12-20T00:19:09.300Z,304.40
2018-12-20T00:19:44.166Z,298.65
2018-12-20T00:20:19.242Z,303.60
2018-12-20T00:20:54.176Z,302.38
2018-12-20T00:21:28.951Z,298.60
2018-12-20T00:22:03.908Z,306.32
2018-12-20T00:22:38.706Z,316.45
2018-12-20T00:23:13.572Z,320.88
2018-12-20T00:23:48.409Z,320.65
2018-12-20T00:24:23.677Z,292.18
2018-12-20T00:24:58.517Z,297.75
2018-12-20T00:25:33.341Z,306.55
2018-12-20T00:26:08.208Z,289.08
2018-12-20T00:26:43.112Z,316.63
2018-12-20T00:27:18.184Z,324.27
2018-12-20T00:27:53.272Z,326.52
2018-12-20T00:28:28.197Z,311.10
2018-12-20T00:29:03.182Z,343.70
2018-12-20T00:29:38.066Z,324.05
2018-12-20T00:30:13.003Z,319.45
2018-12-20T00:30:48.029Z,340.77
2018-12-20T00:31:23.086Z,331.90
2018-12-20T00:31:57.810Z,323.27
2018-12-20T00:32:32.818Z,327.48
2018-12-20T00:33:07.730Z,330.20
2018-12-20T00:33:42.679Z,322.35
2018-12-20T00:34:17.622Z,328.35
2018-12-20T00:34:52.694Z,323.52
2018-12-20T00:35:27.397Z,329.38
2018-12-20T00:36:02.245Z,321.15
2018-12-20T00:36:37.091Z,304.60
2018-12-20T00:37:12.042Z,325.18
2018-12-20T00:37:47.688Z,326.92
2018-12-20T00:38:22.637Z,314.52
2018-12-20T00:38:57.640Z,320.37
2018-12-20T00:39:32.554Z,313.23
2018-12-20T00:40:10.685Z,323.68
2018-12-20T00:40:45.346Z,321.90
2018-12-20T00:41:20.105Z,326.20
2018-12-20T00:41:54.933Z,320.20
2018-12-20T00:42:29.746Z,309.55
2018-12-20T00:43:04.506Z,311.18
2018-12-20T00:43:39.335Z,305.05
2018-12-20T00:44:14.173Z,306.13
2018-12-20T00:44:49.220Z,331.70
2018-12-20T00:45:24.415Z,318.45
2018-12-20T00:45:59.192Z,326.25
2018-12-20T00:46:34.166Z,328.25
2018-12-20T00:47:09.093Z,309.15
2018-12-20T00:47:44.088Z,317.77
2018-12-20T00:48:18.840Z,321.32
2018-12-20T00:48:53.729Z,317.95
2018-12-20T00:49:28.603Z,341.90
2018-12-20T00:50:03.565Z,337.12
2018-12-20T00:50:38.333Z,320.73
2018-12-20T00:51:13.255Z,336.55
2018-12-20T00:51:48.007Z,347.73
2018-12-20T00:52:22.938Z,362.95
2018-12-20T00:52:57.876Z,357.85
2018-12-20T00:53:32.973Z,345.95
2018-12-20T00:54:08.094Z,336.25
2018-12-20T00:54:43.027Z,365.37
2018-12-20T00:55:17.943Z,347.77
2018-12-20T00:55:52.831Z,358.25
2018-12-20T00:56:27.592Z,346.80
2018-12-20T00:57:02.487Z,344.25
2018-12-20T00:57:37.306Z,348.87
2018-12-20T00:58:12.266Z,347.10
2018-12-20T00:58:47.214Z,340.70
2018-12-20T00:59:22.006Z,339.20
2018-12-20T00:59:57.017Z,350.60
2018-12-20T01:00:32.023Z,337.63
2018-12-20T01:01:06.672Z,322.00
2018-12-20T01:01:41.816Z,343.67
2018-12-20T01:02:16.998Z,343.70
2018-12-20T01:02:55.199Z,342.90
2018-12-20T01:03:29.210Z,341.82
2018-12-20T01:04:04.051Z,330.77
2018-12-20T01:04:39.095Z,343.15
2018-12-20T01:05:14.309Z,356.27
2018-12-20T01:05:49.405Z,342.95
2018-12-20T01:06:24.526Z,335.27
2018-12-20T01:06:59.413Z,343.67
2018-12-20T01:07:34.613Z,331.63
2018-12-20T01:08:09.487Z,339.17
2018-12-20T01:08:44.346Z,360.98
2018-12-20T01:09:19.371Z,353.42
2018-12-20T01:09:54.142Z,351.40
2018-12-20T01:10:28.898Z,355.05
2018-12-20T01:11:03.913Z,353.75
2018-12-20T01:11:38.546Z,357.27
2018-12-20T01:12:13.419Z,346.23
2018-12-20T01:12:48.207Z,349.15
2018-12-20T01:13:22.903Z,344.30
2018-12-20T01:13:57.673Z,344.77
2018-12-20T01:14:32.330Z,337.42
2018-12-20T01:15:07.534Z,344.02
2018-12-20T01:15:42.046Z,345.65
2018-12-20T01:16:16.555Z,344.18
2018-12-20T01:16:51.226Z,335.17
2018-12-20T01:17:27.730Z,343.77
2018-12-20T01:18:02.394Z,343.17
2018-12-20T01:18:37.311Z,344.18
2018-12-20T01:19:12.255Z,346.93
2018-12-20T01:19:46.966Z,347.65
2018-12-20T01:20:21.526Z,332.12
2018-12-20T01:20:56.286Z,329.35
2018-12-20T01:21:30.920Z,334.85
2018-12-20T01:22:05.791Z,354.10
2018-12-20T01:22:40.362Z,347.20
2018-12-20T01:23:15.046Z,330.55
2018-12-20T01:23:49.644Z,345.95
2018-12-20T01:24:24.454Z,354.77
2018-12-20T01:24:59.589Z,335.40
2018-12-20T01:25:34.358Z,352.07
2018-12-20T01:26:09.228Z,343.60
2018-12-20T01:26:43.987Z,344.25
2018-12-20T01:27:18.673Z,327.80
2018-12-20T01:27:53.456Z,335.25
2018-12-20T01:28:28.047Z,331.47
2018-12-20T01:29:02.676Z,346.93
2018-12-20T01:29:37.261Z,338.12
2018-12-20T01:30:11.963Z,336.23
2018-12-20T01:30:46.724Z,341.30
2018-12-20T01:31:21.366Z,335.00
2018-12-20T01:31:55.991Z,348.95
2018-12-20T01:32:30.827Z,328.05
2018-12-20T01:33:05.508Z,335.48
2018-12-20T01:33:40.150Z,323.87
2018-12-20T01:34:14.853Z,308.68
2018-12-20T01:34:49.506Z,323.40
2018-12-20T01:35:23.992Z,332.62
2018-12-20T01:35:58.688Z,309.90
2018-12-20T01:36:33.265Z,330.60
2018-12-20T01:37:07.788Z,341.48
2018-12-20T01:37:42.527Z,313.20
2018-12-20T01:38:17.209Z,332.05
2018-12-20T01:38:51.993Z,329.15
2018-12-20T01:39:26.588Z,327.48
2018-12-20T01:40:01.160Z,322.70
2018-12-20T01:40:35.845Z,332.02
2018-12-20T01:41:10.588Z,310.48
2018-12-20T01:41:45.154Z,329.35
2018-12-20T01:42:19.666Z,334.02
2018-12-20T01:42:54.312Z,327.22
2018-12-20T01:43:28.910Z,308.75
2018-12-20T01:44:03.517Z,316.08
2018-12-20T01:44:38.226Z,324.52
2018-12-20T01:45:12.797Z,320.90
2018-12-20T01:45:47.566Z,314.45
2018-12-20T01:46:22.124Z,316.38
2018-12-20T01:46:56.914Z,308.87
2018-12-20T01:47:31.542Z,304.15
2018-12-20T01:48:06.298Z,315.48
2018-12-20T01:48:40.889Z,323.52
2018-12-20T01:49:15.695Z,321.20
2018-12-20T01:49:50.296Z,305.07
2018-12-20T01:50:25.124Z,306.27
2018-12-20T01:50:59.868Z,296.40
2018-12-20T01:51:34.575Z,317.57
2018-12-20T01:52:09.321Z,314.23
2018-12-20T01:52:43.911Z,314.52
2018-12-20T01:53:18.620Z,319.98
2018-12-20T01:53:53.308Z,339.63
2018-12-20T01:54:33.975Z,321.23
2018-12-20T01:55:08.605Z,313.15
2018-12-20T01:55:43.072Z,313.10
2018-12-20T01:56:17.851Z,328.50
2018-12-20T01:56:52.446Z,324.27
2018-12-20T01:57:27.043Z,306.73
2018-12-20T01:58:01.486Z,319.75
2018-12-20T01:58:36.249Z,322.88
2018-12-20T01:59:10.912Z,313.98
2018-12-20T01:59:45.466Z,331.17
2018-12-20T02:00:20.027Z,324.70
2018-12-20T02:00:54.686Z,314.38
2018-12-20T02:01:29.225Z,326.98
2018-12-20T02:02:03.511Z,331.57
2018-12-20T02:02:38.065Z,324.82
2018-12-20T02:03:12.593Z,307.02
2018-12-20T02:03:47.194Z,319.75
2018-12-20T02:04:21.773Z,333.70
2018-12-20T02:04:56.285Z,326.18
2018-12-20T02:05:31.001Z,328.88
2018-12-20T02:06:05.820Z,318.50
2018-12-20T02:06:40.506Z,308.45
2018-12-20T02:07:15.083Z,321.85
2018-12-20T02:07:50.234Z,323.10
2018-12-20T02:08:24.864Z,327.98
2018-12-20T02:08:59.625Z,323.93
2018-12-20T02:09:34.406Z,311.98
2018-12-20T02:10:09.108Z,328.05
2018-12-20T02:10:43.626Z,317.10
2018-12-20T02:11:18.449Z,317.13
2018-12-20T02:11:53.118Z,306.07
2018-12-20T02:12:27.815Z,321.10
2018-12-20T02:13:02.552Z,319.80
2018-12-20T02:13:37.406Z,327.38
2018-12-20T02:14:12.180Z,325.02
2018-12-20T02:14:46.875Z,334.10
2018-12-20T02:15:21.506Z,327.90
2018-12-20T02:15:56.048Z,324.62
2018-12-20T02:16:30.715Z,309.23
2018-12-20T02:17:05.407Z,306.07
2018-12-20T02:17:40.077Z,315.05
2018-12-20T02:18:14.738Z,313.90
2018-12-20T02:18:49.383Z,319.25
2018-12-20T02:19:24.010Z,310.77
2018-12-20T02:19:58.907Z,310.13
2018-12-20T02:20:33.453Z,308.15
2018-12-20T02:21:08.063Z,308.20
2018-12-20T02:21:42.523Z,331.00
2018-12-20T02:22:17.334Z,320.73
2018-12-20T02:22:52.135Z,312.42
2018-12-20T02:23:26.879Z,323.38
2018-12-20T02:24:01.365Z,280.83
2018-12-20T02:24:36.265Z,249.18
2018-12-20T02:25:11.025Z,305.00
2018-12-20T02:25:45.726Z,268.57
2018-12-20T02:26:20.598Z,233.57
2018-12-20T02:26:55.226Z,225.45
2018-12-20T02:27:30.169Z,239.78
2018-12-20T02:28:04.645Z,245.02
2018-12-20T02:28:39.437Z,246.55
2018-12-20T02:29:14.203Z,244.43
2018-12-20T02:29:49.142Z,214.25
2018-12-20T02:30:23.957Z,226.05
2018-12-20T02:30:58.505Z,208.02
2018-12-20T02:31:33.498Z,197.17
2018-12-20T02:32:08.213Z,208.72
2018-12-20T02:32:42.944Z,206.63
2018-12-20T02:33:17.526Z,196.72
2018-12-20T02:33:52.186Z,198.35
2018-12-20T02:34:26.858Z,196.07
2018-12-20T02:35:01.749Z,215.52
2018-12-20T02:35:36.246Z,206.17
2018-12-20T02:36:10.806Z,199.95
2018-12-20T02:36:45.584Z,199.65
2018-12-20T02:37:20.126Z,193.13
2018-12-20T02:37:54.645Z,194.60
2018-12-20T02:38:29.274Z,211.05
2018-12-20T02:39:05.662Z,214.32
2018-12-20T02:39:40.366Z,231.43
2018-12-20T02:40:14.937Z,225.40
2018-12-20T02:40:49.552Z,233.50
2018-12-20T02:41:24.716Z,244.87
2018-12-20T02:41:59.423Z,234.95
2018-12-20T02:42:34.139Z,241.50
2018-12-20T02:43:08.726Z,236.22
2018-12-20T02:43:43.327Z,245.70
2018-12-20T02:44:17.902Z,234.75
2018-12-20T02:44:52.617Z,245.22
2018-12-20T02:45:27.267Z,239.85
2018-12-20T02:46:02.047Z,252.40
2018-12-20T02:46:36.525Z,252.10
2018-12-20T02:47:11.287Z,244.55
2018-12-20T02:47:45.949Z,241.82
2018-12-20T02:48:20.525Z,233.85
2018-12-20T02:48:55.061Z,241.88
2018-12-20T02:49:29.752Z,254.07
2018-12-20T02:50:04.487Z,234.32
2018-12-20T02:50:39.150Z,244.77
2018-12-20T02:51:13.618Z,248.07
2018-12-20T02:51:48.400Z,243.37
2018-12-20T02:52:22.925Z,242.50
2018-12-20T02:52:57.662Z,262.48
2018-12-20T02:53:32.327Z,255.00
2018-12-20T02:54:06.871Z,269.75
2018-12-20T02:54:41.685Z,263.85
2018-12-20T02:55:16.445Z,280.32
2018-12-20T02:55:51.162Z,263.32
2018-12-20T02:56:26.096Z,269.25
2018-12-20T02:57:00.807Z,268.40
2018-12-20T02:57:35.435Z,273.38
2018-12-20T02:58:10.107Z,275.77
2018-12-20T02:58:44.784Z,274.05
2018-12-20T02:59:19.556Z,268.02
2018-12-20T02:59:54.285Z,261.85
2018-12-20T03:00:28.811Z,263.87
2018-12-20T03:01:03.487Z,282.62
2018-12-20T03:01:38.067Z,282.37
2018-12-20T03:02:12.626Z,246.13
2018-12-20T03:02:47.168Z,258.63
2018-12-20T03:03:21.877Z,251.88
2018-12-20T03:03:56.586Z,253.47
2018-12-20T03:04:31.341Z,252.30
2018-12-20T03:05:05.986Z,254.75
2018-12-20T03:05:40.615Z,251.45
2018-12-20T03:06:15.374Z,252.07
2018-12-20T03:06:50.125Z,245.33
2018-12-20T03:07:24.566Z,231.20
2018-12-20T03:07:59.197Z,243.97
2018-12-20T03:08:33.930Z,243.30
2018-12-20T03:09:09.587Z,245.15
2018-12-20T03:09:44.107Z,228.32
2018-12-20T03:10:18.698Z,254.57
2018-12-20T03:10:53.314Z,244.57
2018-12-20T03:11:28.114Z,238.72
2018-12-20T03:12:02.848Z,239.38
2018-12-20T03:12:37.466Z,242.95
2018-12-20T03:13:12.311Z,246.47
2018-12-20T03:13:47.006Z,238.22
2018-12-20T03:14:21.633Z,247.20
2018-12-20T03:14:56.412Z,243.33
2018-12-20T03:15:31.347Z,242.00
2018-12-20T03:16:05.873Z,254.28
2018-12-20T03:16:40.546Z,243.97
2018-12-20T03:17:15.031Z,237.20
2018-12-20T03:17:49.830Z,239.05
2018-12-20T03:18:24.586Z,236.12
2018-12-20T03:18:59.187Z,237.40
2018-12-20T03:19:33.835Z,240.75
2018-12-20T03:20:08.449Z,222.05
2018-12-20T03:20:42.927Z,236.30
2018-12-20T03:21:17.654Z,233.82
2018-12-20T03:21:52.497Z,235.57
2018-12-20T03:22:27.286Z,225.72
2018-12-20T03:23:02.081Z,233.23
2018-12-20T03:23:36.745Z,232.15
2018-12-20T03:24:11.326Z,241.48
2018-12-20T03:24:46.006Z,228.47
2018-12-20T03:25:20.777Z,235.25
2018-12-20T03:25:55.795Z,227.25
2018-12-20T03:26:30.429Z,229.57
2018-12-20T03:27:05.193Z,233.50
2018-12-20T03:27:40.052Z,241.02
2018-12-20T03:28:14.546Z,245.20
2018-12-20T03:28:49.129Z,238.47
2018-12-20T03:29:23.961Z,233.65
2018-12-20T03:29:58.525Z,238.62
2018-12-20T03:30:33.132Z,244.60
2018-12-20T03:31:07.785Z,244.30
2018-12-20T03:31:42.532Z,240.05
2018-12-20T03:32:17.207Z,235.43
2018-12-20T03:32:51.715Z,257.48
2018-12-20T03:33:26.188Z,238.43
2018-12-20T03:34:00.927Z,249.22
2018-12-20T03:34:35.431Z,265.25
2018-12-20T03:35:10.298Z,259.00
2018-12-20T03:35:45.006Z,244.80
2018-12-20T03:36:19.670Z,249.25
2018-12-20T03:36:54.226Z,256.68
2018-12-20T03:37:28.873Z,254.13
2018-12-20T03:38:03.745Z,245.73
2018-12-20T03:38:38.436Z,252.75
2018-12-20T03:39:19.520Z,255.27
2018-12-20T03:39:54.300Z,254.97
2018-12-20T03:40:28.766Z,273.85
2018-12-20T03:41:03.674Z,264.17
2018-12-20T03:41:38.186Z,261.87
2018-12-20T03:42:12.806Z,271.35
2018-12-20T03:42:47.645Z,259.67
2018-12-20T03:43:22.454Z,276.88
2018-12-20T03:43:57.051Z,253.00
2018-12-20T03:44:31.686Z,263.77
2018-12-20T03:45:06.555Z,281.25
2018-12-20T03:45:41.186Z,264.08
2018-12-20T03:46:15.787Z,271.32
2018-12-20T03:46:50.286Z,270.15
2018-12-20T03:47:24.837Z,264.60
2018-12-20T03:47:59.646Z,273.25
2018-12-20T03:48:34.550Z,273.62
2018-12-20T03:49:09.305Z,256.87
2018-12-20T03:49:43.866Z,257.73
2018-12-20T03:50:18.367Z,263.87
2018-12-20T03:50:52.952Z,249.40
2018-12-20T03:51:27.648Z,275.50
2018-12-20T03:52:02.143Z,264.68
2018-12-20T03:52:36.846Z,267.95
2018-12-20T03:53:11.696Z,265.30
2018-12-20T03:53:46.470Z,260.55
2018-12-20T03:54:21.211Z,271.82
2018-12-20T03:54:55.866Z,254.82
2018-12-20T03:55:30.434Z,268.90
2018-12-20T03:56:05.135Z,264.48
2018-12-20T03:56:39.825Z,262.23
2018-12-20T03:57:14.524Z,271.43
2018-12-20T03:57:49.258Z,256.20
2018-12-20T03:58:23.940Z,260.27
2018-12-20T03:58:58.656Z,253.02
2018-12-20T03:59:33.153Z,244.57
2018-12-20T04:00:08.025Z,244.05
2018-12-20T04:00:42.666Z,243.17
2018-12-20T04:01:17.441Z,252.62
2018-12-20T04:01:52.270Z,236.92
2018-12-20T04:02:26.809Z,245.88
2018-12-20T04:03:01.599Z,234.00
2018-12-20T04:03:36.352Z,239.93
2018-12-20T04:04:10.881Z,250.47
2018-12-20T04:04:45.566Z,258.85
2018-12-20T04:05:20.483Z,255.12
2018-12-20T04:05:55.262Z,259.25
2018-12-20T04:06:29.846Z,251.80
2018-12-20T04:07:04.352Z,258.40
2018-12-20T04:07:39.105Z,271.30
2018-12-20T04:08:13.923Z,365.20
2018-12-20T04:08:48.687Z,364.48
2018-12-20T04:09:23.246Z,366.25
2018-12-20T04:09:58.098Z,360.00
2018-12-20T04:10:32.690Z,328.20
2018-12-20T04:11:07.246Z,282.43
2018-12-20T04:11:41.745Z,280.73
2018-12-20T04:12:16.856Z,274.55
2018-12-20T04:12:51.534Z,252.82
2018-12-20T04:13:26.026Z,256.47
2018-12-20T04:14:00.606Z,264.08
2018-12-20T04:14:35.327Z,250.62
2018-12-20T04:15:10.033Z,255.67
2018-12-20T04:15:44.676Z,246.65
2018-12-20T04:16:19.466Z,277.73
2018-12-20T04:16:54.300Z,299.62
2018-12-20T04:17:29.110Z,341.65
2018-12-20T04:18:03.651Z,331.70
2018-12-20T04:18:38.308Z,292.73
2018-12-20T04:19:13.054Z,255.72
2018-12-20T04:19:47.751Z,242.10
2018-12-20T04:20:22.249Z,254.00
2018-12-20T04:20:57.239Z,249.47
2018-12-20T04:21:31.994Z,241.12
2018-12-20T04:22:06.615Z,256.32
2018-12-20T04:22:41.326Z,248.55
2018-12-20T04:23:16.007Z,247.35
2018-12-20T04:23:50.796Z,244.00
2018-12-20T04:24:25.784Z,254.32
2018-12-20T04:25:00.636Z,241.90
2018-12-20T04:25:35.444Z,253.65
2018-12-20T04:26:10.486Z,246.93
2018-12-20T04:26:45.187Z,251.02
2018-12-20T04:27:19.667Z,269.85
2018-12-20T04:27:54.536Z,267.40
2018-12-20T04:28:29.084Z,274.98
2018-12-20T04:29:03.546Z,256.75
2018-12-20T04:29:38.165Z,263.87
2018-12-20T04:30:12.890Z,253.15
2018-12-20T04:30:47.414Z,250.80
2018-12-20T04:31:22.293Z,258.15
2018-12-20T04:31:56.869Z,256.35
2018-12-20T04:32:31.754Z,251.88
2018-12-20T04:33:06.516Z,247.73
2018-12-20T04:33:41.274Z,251.30
2018-12-20T04:34:16.090Z,245.75
2018-12-20T04:34:50.923Z,257.95
2018-12-20T04:35:25.730Z,256.75
2018-12-20T04:36:00.447Z,262.50
2018-12-20T04:36:34.901Z,265.02
2018-12-20T04:37:09.514Z,253.80
2018-12-20T04:37:44.318Z,262.80
2018-12-20T04:38:18.995Z,260.27
2018-12-20T04:38:53.882Z,260.52
2018-12-20T04:39:28.625Z,256.05
2018-12-20T04:40:03.165Z,257.00
2018-12-20T04:40:37.801Z,264.55
2018-12-20T04:41:12.347Z,250.10
2018-12-20T04:41:47.025Z,250.13
2018-12-20T04:42:21.870Z,261.80
2018-12-20T04:42:56.873Z,270.77
2018-12-20T04:43:31.554Z,269.80
2018-12-20T04:44:06.203Z,261.80
2018-12-20T04:44:41.010Z,255.83
2018-12-20T04:45:15.666Z,258.32
2018-12-20T04:45:50.308Z,260.57
2018-12-20T04:46:24.785Z,267.10
2018-12-20T04:46:59.654Z,267.60
2018-12-20T04:47:34.561Z,248.05
2018-12-20T04:48:09.255Z,250.40
2018-12-20T04:48:44.114Z,265.00
2018-12-20T04:49:18.821Z,252.70
2018-12-20T04:49:53.616Z,245.85
2018-12-20T04:50:28.391Z,264.45
2018-12-20T04:51:02.965Z,246.47
2018-12-20T04:51:37.688Z,251.20
2018-12-20T04:52:12.307Z,259.10
2018-12-20T04:52:46.806Z,249.82
2018-12-20T04:53:21.437Z,245.02
2018-12-20T04:53:56.066Z,261.02
2018-12-20T04:54:30.546Z,252.53
2018-12-20T04:55:05.251Z,263.57
2018-12-20T04:55:39.988Z,248.65
2018-12-20T04:56:14.573Z,251.60
2018-12-20T04:56:49.420Z,278.98
2018-12-20T04:57:23.876Z,260.52
2018-12-20T04:57:58.708Z,237.53
2018-12-20T04:58:33.467Z,257.70
2018-12-20T04:59:08.399Z,235.08
2018-12-20T04:59:42.987Z,245.42
2018-12-20T05:00:17.678Z,262.32
2018-12-20T05:00:52.369Z,251.37
2018-12-20T05:01:27.086Z,247.67
2018-12-20T05:02:02.099Z,248.20
2018-12-20T05:02:36.705Z,259.90
2018-12-20T05:03:11.528Z,250.85
2018-12-20T05:03:45.988Z,260.93
2018-12-20T05:04:20.616Z,253.90
2018-12-20T05:04:54.926Z,243.22
2018-12-20T05:05:29.688Z,246.93
2018-12-20T05:06:04.366Z,248.85
2018-12-20T05:06:39.054Z,244.72
2018-12-20T05:07:13.783Z,249.92
2018-12-20T05:07:48.423Z,248.65
2018-12-20T05:08:23.165Z,247.27
2018-12-20T05:08:57.987Z,248.97
2018-12-20T05:09:32.688Z,255.92
2018-12-20T05:10:07.538Z,271.25
2018-12-20T05:10:42.128Z,257.55
2018-12-20T05:11:17.272Z,239.75
2018-12-20T05:11:52.213Z,233.70
2018-12-20T05:12:27.276Z,237.27
2018-12-20T05:13:01.925Z,232.95
2018-12-20T05:13:36.645Z,231.53
2018-12-20T05:14:11.465Z,247.12
2018-12-20T05:14:46.200Z,237.15
2018-12-20T05:15:20.946Z,250.55
2018-12-20T05:15:56.332Z,253.12
2018-12-20T05:16:31.425Z,242.30
2018-12-20T05:17:06.032Z,248.55
2018-12-20T05:17:40.919Z,243.73
2018-12-20T05:18:15.633Z,249.35
2018-12-20T05:18:50.244Z,250.75
2018-12-20T05:19:25.061Z,253.85
2018-12-20T05:19:59.914Z,248.50
2018-12-20T05:20:34.562Z,244.07
2018-12-20T05:21:09.050Z,238.72
2018-12-20T05:21:43.646Z,240.03
2018-12-20T05:22:18.598Z,227.07
2018-12-20T05:22:53.381Z,226.22
2018-12-20T05:23:28.146Z,229.93
2018-12-20T05:24:02.906Z,240.90
2018-12-20T05:24:37.551Z,234.55
2018-12-20T05:25:12.225Z,228.92
2018-12-20T05:25:46.559Z,227.40
2018-12-20T05:26:21.205Z,235.60
2018-12-20T05:26:55.904Z,230.85
2018-12-20T05:27:30.545Z,240.68
2018-12-20T05:28:05.117Z,237.97
2018-12-20T05:28:39.833Z,235.93
2018-12-20T05:29:14.561Z,222.33
2018-12-20T05:29:49.206Z,228.10
2018-12-20T05:30:23.765Z,247.48
2018-12-20T05:30:58.345Z,245.35
2018-12-20T05:31:32.984Z,239.10
2018-12-20T05:32:07.909Z,246.13
2018-12-20T05:32:42.937Z,230.65
2018-12-20T05:33:17.813Z,234.47
2018-12-20T05:33:52.638Z,234.37
2018-12-20T05:34:27.187Z,187.57
2018-12-20T05:35:01.849Z,212.42
2018-12-20T05:35:36.514Z,203.25
2018-12-20T05:36:11.307Z,199.75
2018-12-20T05:36:45.971Z,196.90
2018-12-20T05:37:20.819Z,192.85
2018-12-20T05:37:55.254Z,181.93
2018-12-20T05:38:30.048Z,178.95
2018-12-20T05:39:06.590Z,176.32
2018-12-20T05:39:41.188Z,163.07
2018-12-20T05:40:16.064Z,154.32
2018-12-20T05:40:50.779Z,154.45
2018-12-20T05:41:25.674Z,161.60
2018-12-20T05:42:00.573Z,152.22
2018-12-20T05:42:35.440Z,165.52
2018-12-20T05:43:10.086Z,141.18
2018-12-20T05:43:44.946Z,132.32
2018-12-20T05:44:19.881Z,152.68
2018-12-20T05:44:54.585Z,156.55
2018-12-20T05:45:29.253Z,154.65
2018-12-20T05:46:04.579Z,156.28
2018-12-20T05:46:39.517Z,145.57
2018-12-20T05:47:14.449Z,156.28
2018-12-20T05:47:49.440Z,156.45
2018-12-20T05:48:24.084Z,156.15
2018-12-20T05:48:58.971Z,157.90
2018-12-20T05:49:33.606Z,146.22
2018-12-20T05:50:08.451Z,149.47
2018-12-20T05:50:43.441Z,143.28
2018-12-20T05:51:18.384Z,142.68
2018-12-20T05:51:53.014Z,143.07
2018-12-20T05:52:27.414Z,149.95
2018-12-20T05:53:02.291Z,144.87
2018-12-20T05:53:37.190Z,147.50
2018-12-20T05:54:11.861Z,149.97
2018-12-20T05:54:46.525Z,143.00
2018-12-20T05:55:21.045Z,139.00
2018-12-20T05:55:55.687Z,146.98
2018-12-20T05:56:30.284Z,147.68
2018-12-20T05:57:05.067Z,144.22
2018-12-20T05:57:39.614Z,142.93
2018-12-20T05:58:14.333Z,133.55
2018-12-20T05:58:48.974Z,156.15
2018-12-20T05:59:23.530Z,133.57
2018-12-20T05:59:58.260Z,142.13
2018-12-20T06:00:32.765Z,150.53
2018-12-20T06:01:07.366Z,135.55
2018-12-20T06:01:41.817Z,138.82
2018-12-20T06:02:16.743Z,153.85
2018-12-20T06:02:51.386Z,144.82
2018-12-20T06:03:26.205Z,139.65
2018-12-20T06:04:00.807Z,151.07
2018-12-20T06:04:35.361Z,145.20
2018-12-20T06:05:09.757Z,141.68
2018-12-20T06:05:44.174Z,140.00
2018-12-20T06:06:18.956Z,135.15
2018-12-20T06:06:53.765Z,136.82
2018-12-20T06:07:28.548Z,137.12
2018-12-20T06:08:03.424Z,147.50
2018-12-20T06:08:38.165Z,135.07
2018-12-20T06:09:12.954Z,141.70
2018-12-20T06:09:47.602Z,142.30
2018-12-20T06:10:22.170Z,129.63
2018-12-20T06:10:56.761Z,137.90
2018-12-20T06:11:31.247Z,127.20
2018-12-20T06:12:06.037Z,140.68
2018-12-20T06:12:40.606Z,132.20
2018-12-20T06:13:15.521Z,149.12
2018-12-20T06:13:50.341Z,143.15
2018-12-20T06:14:25.088Z,133.65
2018-12-20T06:14:59.745Z,129.07
2018-12-20T06:15:35.164Z,126.80
2018-12-20T06:16:12.954Z,141.73
2018-12-20T06:16:46.085Z,140.35
2018-12-20T06:17:20.502Z,141.47
2018-12-20T06:17:54.745Z,143.78
2018-12-20T06:18:29.431Z,142.13
2018-12-20T06:19:04.243Z,149.65
2018-12-20T06:19:39.006Z,166.82
2018-12-20T06:20:13.764Z,173.70
2018-12-20T06:20:48.429Z,170.43
2018-12-20T06:21:23.340Z,171.40
2018-12-20T06:21:57.925Z,166.77
2018-12-20T06:22:32.545Z,169.70
2018-12-20T06:23:07.045Z,188.82
2018-12-20T06:23:41.685Z,188.45
2018-12-20T06:24:16.433Z,173.72
2018-12-20T06:24:51.025Z,173.78
2018-12-20T06:25:25.673Z,159.35
2018-12-20T06:26:00.325Z,168.87
2018-12-20T06:26:34.893Z,167.50
2018-12-20T06:27:09.425Z,166.77
2018-12-20T06:27:44.005Z,178.75
2018-12-20T06:28:18.553Z,181.07
2018-12-20T06:28:53.165Z,172.80
2018-12-20T06:29:27.865Z,177.27
2018-12-20T06:30:02.436Z,172.98
2018-12-20T06:30:37.205Z,158.82
2018-12-20T06:31:11.685Z,165.03
2018-12-20T06:31:46.333Z,144.02
2018-12-20T06:32:20.885Z,154.65
2018-12-20T06:32:55.525Z,137.95
2018-12-20T06:33:30.128Z,149.10
2018-12-20T06:34:04.785Z,146.32
2018-12-20T06:34:42.386Z,145.65
2018-12-20T06:35:17.045Z,139.57
2018-12-20T06:35:51.507Z,141.53
2018-12-20T06:36:25.954Z,159.63
2018-12-20T06:37:00.685Z,150.38
2018-12-20T06:37:35.226Z,146.28
2018-12-20T06:38:09.845Z,159.15
2018-12-20T06:38:44.345Z,163.40
2018-12-20T06:39:18.785Z,164.20
2018-12-20T06:39:53.465Z,152.82
2018-12-20T06:40:27.985Z,155.55
2018-12-20T06:41:02.605Z,145.60
2018-12-20T06:41:37.086Z,140.80
2018-12-20T06:42:11.706Z,147.57
2018-12-20T06:42:46.253Z,138.77
2018-12-20T06:43:20.825Z,137.65
2018-12-20T06:43:55.245Z,126.58
2018-12-20T06:44:29.645Z,135.18
2018-12-20T06:45:04.665Z,149.20
2018-12-20T06:45:39.165Z,141.05
2018-12-20T06:46:20.835Z,142.62
2018-12-20T06:46:50.387Z,140.03
2018-12-20T06:47:24.965Z,133.43
2018-12-20T06:47:59.366Z,130.57
2018-12-20T06:48:33.886Z,149.55
2018-12-20T06:49:08.485Z,163.52
2018-12-20T06:49:43.088Z,151.70
2018-12-20T06:50:17.714Z,157.43
2018-12-20T06:50:52.306Z,154.50
2018-12-20T06:51:26.745Z,156.02
2018-12-20T06:52:01.286Z,167.20
2018-12-20T06:52:35.906Z,170.68
2018-12-20T06:53:10.446Z,155.95
2018-12-20T06:53:45.065Z,157.00
2018-12-20T06:54:19.632Z,169.77
2018-12-20T06:54:54.272Z,151.20
2018-12-20T06:55:28.905Z,152.50
2018-12-20T06:56:03.505Z,158.52
2018-12-20T06:56:38.046Z,152.15
2018-12-20T06:57:12.686Z,153.18
2018-12-20T06:57:47.253Z,151.42
2018-12-20T06:58:21.846Z,155.07
2018-12-20T06:58:56.425Z,151.63
2018-12-20T06:59:30.997Z,152.35
2018-12-20T07:00:06.506Z,165.50
2018-12-20T07:00:41.166Z,160.40
2018-12-20T07:01:15.665Z,156.00
2018-12-20T07:01:50.265Z,160.70
2018-12-20T07:02:25.045Z,156.87
2018-12-20T07:02:59.666Z,153.30
2018-12-20T07:03:34.109Z,150.22
2018-12-20T07:04:08.666Z,161.75
2018-12-20T07:04:43.207Z,151.32
2018-12-20T07:05:17.846Z,144.95
2018-12-20T07:05:52.506Z,149.53
2018-12-20T07:06:27.126Z,152.05
2018-12-20T07:07:01.626Z,148.65
2018-12-20T07:07:36.146Z,145.47
2018-12-20T07:08:10.685Z,149.82
2018-12-20T07:08:45.367Z,153.93
2018-12-20T07:09:19.987Z,153.53
2018-12-20T07:09:54.406Z,152.47
2018-12-20T07:10:28.966Z,154.95
2018-12-20T07:11:03.506Z,158.75
2018-12-20T07:11:38.089Z,154.03
2018-12-20T07:12:12.566Z,143.87
2018-12-20T07:12:47.126Z,158.22
2018-12-20T07:13:21.625Z,167.10
2018-12-20T07:13:56.149Z,164.85